Time;durP1;ratioP1;P1;durP2;ratioP2;P2;SDS_P1;SDS_P2;PMS_P1;PMS_P2;Temp;Humidity;BMP_temperature;BMP_pressure;BME280_temperature;BME280_humidity;BME280_pressure;Samples;Min_cycle;Max_cycle;Signal;HPM_P1;HPM_P2
2022/08/27 00:00:43;;;;;;;16.77;10.40;;;;;;;;;;4362321;32;20547;-65
2022/08/27 00:03:09;;;;;;;17.55;10.98;;;;;;;;;;4376377;32;20070;-64
2022/08/27 00:05:36;;;;;;;18.45;11.02;;;;;;;;;;4374786;32;20162;-66
2022/08/27 00:08:04;;;;;;;15.60;10.65;;;;;;;;;;4376113;32;20085;-65
2022/08/27 00:10:32;;;;;;;18.80;11.40;;;;;;;;;;4362377;32;20097;-64
2022/08/27 00:12:59;;;;;;;17.27;11.20;;;;;;;;;;4374957;32;20089;-65
2022/08/27 00:15:26;;;;;;;17.95;11.68;;;;;;;;;;4376418;32;20088;-64
2022/08/27 00:17:53;;;;;;;17.62;11.63;;;;;;;;;;4375233;32;20070;-65
2022/08/27 00:20:21;;;;;;;18.92;11.70;;;;;;;;;;4367610;32;20584;-64
2022/08/27 00:22:48;;;;;;;19.27;10.68;;;;;;;;;;4379122;32;20090;-65
2022/08/27 00:25:15;;;;;;;18.75;11.68;;;;;;;;;;4379075;32;20086;-66
2022/08/27 00:27:42;;;;;;;17.27;11.07;;;;;;;;;;4365929;32;20147;-65
2022/08/27 00:30:12;;;;;;;18.62;11.68;;;;;;;;;;4365209;32;20165;-65
2022/08/27 00:32:39;;;;;;;16.55;10.40;;;;;;;;;;4377873;32;20074;-66
2022/08/27 00:35:06;;;;;;;14.95;10.10;;;;;;;;;;4377536;32;20166;-66
2022/08/27 00:37:33;;;;;;;16.20;9.85;;;;;;;;;;4379079;32;20073;-65
2022/08/27 00:40:00;;;;;;;16.42;9.90;;;;;;;;;;4377510;32;20519;-65
2022/08/27 00:42:27;;;;;;;16.12;9.82;;;;;;;;;;4377685;32;20082;-65
2022/08/27 00:44:54;;;;;;;16.45;9.52;;;;;;;;;;4364900;32;20086;-65
2022/08/27 00:47:23;;;;;;;13.60;9.15;;;;;;;;;;4377683;32;20171;-66
2022/08/27 00:50:06;;;;;;;14.87;9.73;;;;;;;;;;4379597;32;20177;-64
2022/08/27 00:52:55;;;;;;;15.90;9.82;;;;;;;;;;4377691;32;20091;-65
2022/08/27 00:55:25;;;;;;;16.52;9.88;;;;;;;;;;4364969;32;20082;-65
2022/08/27 00:58:30;;;;;;;16.42;10.27;;;;;;;;;;4377338;32;20177;-65
2022/08/27 01:00:58;;;;;;;20.20;10.07;;;;;;;;;;4364116;32;20157;-65
2022/08/27 01:03:25;;;;;;;13.57;9.93;;;;;;;;;;4378486;32;20483;-65
2022/08/27 01:05:54;;;;;;;18.77;9.63;;;;;;;;;;4364685;32;20456;-65
2022/08/27 01:08:23;;;;;;;14.40;9.45;;;;;;;;;;4377397;32;20086;-65
2022/08/27 01:10:51;;;;;;;13.50;9.60;;;;;;;;;;4378013;32;20101;-65
2022/08/27 01:13:21;;;;;;;12.43;9.10;;;;;;;;;;4364802;32;20162;-65
2022/08/27 01:15:48;;;;;;;16.85;9.55;;;;;;;;;;4377312;32;20508;-65
2022/08/27 01:18:15;;;;;;;15.15;9.68;;;;;;;;;;4376804;32;20082;-65
2022/08/27 01:20:54;;;;;;;15.13;9.57;;;;;;;;;;4376760;32;20534;-66
2022/08/27 01:23:37;;;;;;;13.13;9.05;;;;;;;;;;4365103;32;20158;-65
2022/08/27 01:26:06;;;;;;;14.05;8.85;;;;;;;;;;4378381;32;20537;-66
2022/08/27 01:28:35;;;;;;;13.25;9.18;;;;;;;;;;4378131;32;20071;-65
2022/08/27 01:31:04;;;;;;;13.35;8.90;;;;;;;;;;4377847;32;20175;-66
2022/08/27 01:33:31;;;;;;;15.52;9.18;;;;;;;;;;4376871;32;20591;-66
2022/08/27 01:35:58;;;;;;;14.87;9.50;;;;;;;;;;4378338;32;20505;-67
2022/08/27 01:38:26;;;;;;;13.93;9.35;;;;;;;;;;4364981;32;20138;-64
2022/08/27 01:40:53;;;;;;;14.00;8.82;;;;;;;;;;4376579;32;20100;-65
2022/08/27 01:43:19;;;;;;;17.48;9.52;;;;;;;;;;4376950;32;20141;-65
2022/08/27 01:45:48;;;;;;;11.80;9.30;;;;;;;;;;4376351;32;20097;-65
2022/08/27 01:48:19;;;;;;;13.30;9.35;;;;;;;;;;4364942;32;20086;-65
2022/08/27 01:50:47;;;;;;;14.98;9.07;;;;;;;;;;4377044;32;20074;-65
2022/08/27 01:53:20;;;;;;;14.85;8.98;;;;;;;;;;4376674;32;20092;-65
2022/08/27 01:55:48;;;;;;;13.70;9.13;;;;;;;;;;4376307;32;20134;-65
2022/08/27 01:58:15;;;;;;;15.40;8.90;;;;;;;;;;4376150;32;20437;-66
2022/08/27 02:00:45;;;;;;;14.05;9.23;;;;;;;;;;4377942;32;20093;-65
2022/08/27 02:03:12;;;;;;;14.90;8.95;;;;;;;;;;4376920;32;20101;-66
2022/08/27 02:05:39;;;;;;;15.52;9.23;;;;;;;;;;4376408;32;20079;-65
2022/08/27 02:08:07;;;;;;;13.73;9.35;;;;;;;;;;4376473;32;20141;-65
2022/08/27 02:10:36;;;;;;;14.38;9.23;;;;;;;;;;4377463;32;20090;-65
2022/08/27 02:13:04;;;;;;;15.13;10.00;;;;;;;;;;4378186;32;20089;-65
2022/08/27 02:15:31;;;;;;;15.02;9.15;;;;;;;;;;4376510;32;20070;-65
2022/08/27 02:17:58;;;;;;;12.85;9.55;;;;;;;;;;4377330;32;20554;-65
2022/08/27 02:20:24;;;;;;;14.68;8.70;;;;;;;;;;4363620;32;20093;-65
2022/08/27 02:22:51;;;;;;;14.13;8.90;;;;;;;;;;4363585;32;20667;-65
2022/08/27 02:25:19;;;;;;;16.87;8.95;;;;;;;;;;4363556;32;20076;-66
2022/08/27 02:27:46;;;;;;;15.85;9.13;;;;;;;;;;4376175;32;20078;-65
2022/08/27 02:30:15;;;;;;;11.38;8.68;;;;;;;;;;4375987;32;20070;-65
2022/08/27 02:32:44;;;;;;;16.77;9.50;;;;;;;;;;4376268;32;20464;-65
2022/08/27 02:35:10;;;;;;;16.05;9.55;;;;;;;;;;4376079;32;20094;-65
2022/08/27 02:37:37;;;;;;;17.17;9.98;;;;;;;;;;4377483;32;20580;-66
2022/08/27 02:40:05;;;;;;;18.25;10.10;;;;;;;;;;4377968;32;20093;-65
2022/08/27 02:42:32;;;;;;;18.25;10.48;;;;;;;;;;4375625;32;20449;-65
2022/08/27 02:44:58;;;;;;;18.85;10.40;;;;;;;;;;4377112;32;20105;-66
2022/08/27 02:47:25;;;;;;;16.98;10.13;;;;;;;;;;4363485;32;20146;-65
2022/08/27 02:49:52;;;;;;;17.35;10.50;;;;;;;;;;4375675;32;20153;-65
2022/08/27 02:52:19;;;;;;;15.90;10.65;;;;;;;;;;4377276;32;20137;-66
2022/08/27 02:54:46;;;;;;;15.88;10.30;;;;;;;;;;4375336;32;20480;-65
2022/08/27 02:57:13;;;;;;;13.75;9.63;;;;;;;;;;4375823;32;20153;-64
2022/08/27 02:59:40;;;;;;;15.05;9.57;;;;;;;;;;4377087;32;20150;-66
2022/08/27 03:02:06;;;;;;;13.25;9.40;;;;;;;;;;4376433;32;20192;-65
2022/08/27 03:04:33;;;;;;;14.05;9.27;;;;;;;;;;4376829;32;20089;-64
2022/08/27 03:07:00;;;;;;;17.90;10.38;;;;;;;;;;4375589;32;20182;-64
2022/08/27 03:09:26;;;;;;;13.20;9.85;;;;;;;;;;4375623;32;20161;-65
2022/08/27 03:11:53;;;;;;;19.95;11.10;;;;;;;;;;4375458;32;20077;-66
2022/08/27 03:14:20;;;;;;;21.83;10.55;;;;;;;;;;4375690;32;20133;-65
2022/08/27 03:16:47;;;;;;;16.48;9.55;;;;;;;;;;4377004;32;20504;-65
2022/08/27 03:19:14;;;;;;;16.50;10.00;;;;;;;;;;4375223;32;20083;-67
2022/08/27 03:21:40;;;;;;;17.48;10.07;;;;;;;;;;4376596;32;20104;-64
2022/08/27 03:24:08;;;;;;;15.35;10.07;;;;;;;;;;4375432;32;20089;-65
2022/08/27 03:26:34;;;;;;;16.05;10.13;;;;;;;;;;4375781;32;20078;-64
2022/08/27 03:29:01;;;;;;;15.45;9.50;;;;;;;;;;4376081;32;20189;-66
2022/08/27 03:31:28;;;;;;;14.25;9.43;;;;;;;;;;4375607;32;20093;-65
2022/08/27 03:34:00;;;;;;;15.60;9.30;;;;;;;;;;4363422;32;20075;-66
2022/08/27 03:36:29;;;;;;;17.35;10.45;;;;;;;;;;4381182;32;20560;-65
2022/08/27 03:38:56;;;;;;;14.87;9.57;;;;;;;;;;4366934;32;20070;-65
2022/08/27 03:41:23;;;;;;;13.35;9.50;;;;;;;;;;4372895;32;20158;-65
2022/08/27 03:43:51;;;;;;;14.68;9.48;;;;;;;;;;4359275;32;20086;-66
2022/08/27 03:46:19;;;;;;;18.17;9.98;;;;;;;;;;4372089;32;20067;-64
2022/08/27 03:48:46;;;;;;;14.10;9.65;;;;;;;;;;4371568;32;20054;-66
2022/08/27 03:51:14;;;;;;;14.32;9.40;;;;;;;;;;4385915;32;20569;-66
2022/08/27 03:53:43;;;;;;;19.70;9.70;;;;;;;;;;4384116;32;20163;-66
2022/08/27 03:56:10;;;;;;;15.50;9.43;;;;;;;;;;4384106;32;20587;-65
2022/08/27 03:58:37;;;;;;;14.30;9.80;;;;;;;;;;4377625;32;20090;-65
2022/08/27 04:01:05;;;;;;;16.05;10.50;;;;;;;;;;4377219;32;20141;-66
2022/08/27 04:03:34;;;;;;;17.58;9.85;;;;;;;;;;4379051;32;20511;-65
2022/08/27 04:06:02;;;;;;;18.83;8.43;;;;;;;;;;4375395;32;20066;-65
2022/08/27 04:08:29;;;;;;;14.87;8.60;;;;;;;;;;4374870;32;20077;-64
2022/08/27 04:10:56;;;;;;;17.35;9.20;;;;;;;;;;4362485;32;20459;-65
2022/08/27 04:13:23;;;;;;;17.83;9.05;;;;;;;;;;4375090;32;20084;-65
2022/08/27 04:15:51;;;;;;;12.98;8.45;;;;;;;;;;4362474;32;20059;-64
2022/08/27 04:18:18;;;;;;;21.40;9.15;;;;;;;;;;4375201;32;20081;-64
2022/08/27 04:20:46;;;;;;;16.33;9.60;;;;;;;;;;4376611;32;20158;-64
2022/08/27 04:23:12;;;;;;;16.10;9.32;;;;;;;;;;4375365;32;20082;-65
2022/08/27 04:25:40;;;;;;;17.77;9.55;;;;;;;;;;4376208;32;20090;-64
2022/08/27 04:28:08;;;;;;;15.55;9.98;;;;;;;;;;4374880;32;20074;-66
2022/08/27 04:30:43;;;;;;;16.65;8.98;;;;;;;;;;4375703;32;20097;-65
2022/08/27 04:33:10;;;;;;;16.50;8.97;;;;;;;;;;4350677;32;20079;-65
2022/08/27 04:35:37;;;;;;;14.00;9.27;;;;;;;;;;4374737;32;20706;-65
2022/08/27 04:38:04;;;;;;;17.65;9.55;;;;;;;;;;4376048;32;20169;-65
2022/08/27 04:43:16;;;;;;;17.42;10.02;;;;;;;;;;4364438;32;20149;-64
2022/08/27 04:45:44;;;;;;;19.40;11.07;;;;;;;;;;4374106;32;20112;-65
2022/08/27 04:48:12;;;;;;;20.00;10.80;;;;;;;;;;4374913;32;20093;-64
2022/08/27 04:50:41;;;;;;;20.00;11.23;;;;;;;;;;4375049;32;20508;-64
2022/08/27 04:53:09;;;;;;;21.08;10.77;;;;;;;;;;4376338;32;20156;-66
2022/08/27 04:55:44;;;;;;;14.05;9.45;;;;;;;;;;4375176;32;20504;-65
2022/08/27 04:58:11;;;;;;;17.42;9.77;;;;;;;;;;4375986;32;20086;-65
2022/08/27 05:00:42;;;;;;;17.17;9.02;;;;;;;;;;4376334;32;20082;-65
2022/08/27 05:03:09;;;;;;;19.05;10.57;;;;;;;;;;4376089;32;20167;-64
2022/08/27 05:05:36;;;;;;;17.15;10.75;;;;;;;;;;4376143;32;20166;-66
2022/08/27 05:08:05;;;;;;;23.08;10.32;;;;;;;;;;4364493;32;20085;-65
2022/08/27 05:10:41;;;;;;;15.35;9.95;;;;;;;;;;4377435;32;20169;-65
2022/08/27 05:13:08;;;;;;;16.12;11.20;;;;;;;;;;4377018;32;20557;-66
2022/08/27 05:15:35;;;;;;;23.70;12.27;;;;;;;;;;4377282;32;20548;-66
2022/08/27 05:18:02;;;;;;;16.42;10.13;;;;;;;;;;4377027;32;20512;-66
2022/08/27 05:20:31;;;;;;;15.65;10.18;;;;;;;;;;4377200;32;20184;-66
2022/08/27 05:22:58;;;;;;;18.17;10.60;;;;;;;;;;4364764;32;20085;-65
2022/08/27 05:25:25;;;;;;;18.45;12.52;;;;;;;;;;4376904;32;20215;-65
2022/08/27 05:27:52;;;;;;;15.60;10.25;;;;;;;;;;4364620;32;20081;-66
2022/08/27 05:30:19;;;;;;;16.65;9.90;;;;;;;;;;4364584;32;20158;-65
2022/08/27 05:32:46;;;;;;;17.20;10.02;;;;;;;;;;4378200;32;20116;-66
2022/08/27 05:35:12;;;;;;;15.38;10.80;;;;;;;;;;4364718;32;20078;-66
2022/08/27 05:37:39;;;;;;;20.42;9.75;;;;;;;;;;4378015;32;20592;-65
2022/08/27 05:40:06;;;;;;;16.80;9.48;;;;;;;;;;4378190;32;20104;-66
2022/08/27 05:42:33;;;;;;;13.88;9.82;;;;;;;;;;4378206;32;20077;-65
2022/08/27 05:45:00;;;;;;;16.00;10.88;;;;;;;;;;4382270;32;20548;-66
2022/08/27 05:47:26;;;;;;;13.80;8.38;;;;;;;;;;4376617;32;20086;-66
2022/08/27 05:49:54;;;;;;;15.68;8.27;;;;;;;;;;4376542;32;20090;-65
2022/08/27 05:52:21;;;;;;;13.75;9.23;;;;;;;;;;4377866;32;20098;-65
2022/08/27 05:54:48;;;;;;;11.70;8.55;;;;;;;;;;4377864;32;20512;-65
2022/08/27 05:57:14;;;;;;;16.50;8.43;;;;;;;;;;4378118;32;20157;-65
2022/08/27 06:02:27;;;;;;;12.60;7.97;;;;;;;;;;4377659;32;20463;-65
2022/08/27 06:04:53;;;;;;;13.23;8.68;;;;;;;;;;4377928;32;20070;-65
2022/08/27 06:07:20;;;;;;;14.40;8.90;;;;;;;;;;4363950;32;20519;-65
2022/08/27 06:09:47;;;;;;;17.12;10.13;;;;;;;;;;4376469;32;20078;-65
2022/08/27 06:12:13;;;;;;;19.30;10.85;;;;;;;;;;4377657;32;20123;-65
2022/08/27 06:14:40;;;;;;;18.10;11.02;;;;;;;;;;4376240;32;20077;-66
2022/08/27 06:17:07;;;;;;;16.20;8.98;;;;;;;;;;4377668;32;20078;-65
2022/08/27 06:19:35;;;;;;;18.23;8.93;;;;;;;;;;4377741;32;20173;-66
2022/08/27 06:22:02;;;;;;;15.27;9.38;;;;;;;;;;4363773;32;20098;-65
2022/08/27 06:24:29;;;;;;;21.62;11.93;;;;;;;;;;4377595;32;20089;-65
2022/08/27 06:26:56;;;;;;;25.33;10.93;;;;;;;;;;4376086;32;20159;-65
2022/08/27 06:29:23;;;;;;;31.55;12.73;;;;;;;;;;4376794;32;20250;-66
2022/08/27 06:31:51;;;;;;;23.20;9.88;;;;;;;;;;4377610;32;20078;-65
2022/08/27 06:34:18;;;;;;;15.30;7.80;;;;;;;;;;4376426;32;20145;-64
2022/08/27 06:36:45;;;;;;;13.23;9.77;;;;;;;;;;4377464;32;20097;-65
2022/08/27 06:39:14;;;;;;;15.15;9.13;;;;;;;;;;4375929;32;20104;-65
2022/08/27 06:41:41;;;;;;;15.48;8.80;;;;;;;;;;4377285;32;20540;-65
2022/08/27 06:44:08;;;;;;;12.05;8.95;;;;;;;;;;4375993;32;20074;-65
2022/08/27 06:46:37;;;;;;;12.37;8.10;;;;;;;;;;4375532;32;20521;-65
2022/08/27 06:49:03;;;;;;;14.52;8.85;;;;;;;;;;4376228;32;20489;-65
2022/08/27 06:51:32;;;;;;;13.32;8.45;;;;;;;;;;4375440;32;20089;-65
2022/08/27 06:54:02;;;;;;;12.45;8.38;;;;;;;;;;4376024;32;20085;-66
2022/08/27 06:56:29;;;;;;;12.82;7.45;;;;;;;;;;4376869;32;20086;-66
2022/08/27 06:58:57;;;;;;;11.55;8.27;;;;;;;;;;4377186;32;20601;-65
2022/08/27 07:01:50;;;;;;;11.23;8.13;;;;;;;;;;4375671;32;20153;-66
2022/08/27 07:04:20;;;;;;;10.75;7.07;;;;;;;;;;4372810;32;20597;-66
2022/08/27 07:06:48;;;;;;;9.63;6.60;;;;;;;;;;4375576;32;20146;-66
2022/08/27 07:09:15;;;;;;;14.82;8.95;;;;;;;;;;4375533;32;20104;-66
2022/08/27 07:11:42;;;;;;;12.75;7.97;;;;;;;;;;4363285;32;20250;-65
2022/08/27 07:14:09;;;;;;;10.52;6.85;;;;;;;;;;4375503;32;20078;-65
2022/08/27 07:16:36;;;;;;;8.90;6.47;;;;;;;;;;4375662;32;20078;-65
2022/08/27 07:19:04;;;;;;;12.07;7.37;;;;;;;;;;4363043;32;20090;-66
2022/08/27 07:21:32;;;;;;;8.82;6.25;;;;;;;;;;4376808;32;20081;-65
2022/08/27 07:24:03;;;;;;;11.73;7.50;;;;;;;;;;4375783;32;20097;-66
2022/08/27 07:26:31;;;;;;;13.07;7.93;;;;;;;;;;4363552;32;20070;-65
2022/08/27 07:28:59;;;;;;;9.77;6.68;;;;;;;;;;4374575;32;20536;-65
2022/08/27 07:31:26;;;;;;;13.55;7.65;;;;;;;;;;4374884;32;20438;-66
2022/08/27 07:33:53;;;;;;;11.45;7.15;;;;;;;;;;4363232;32;20183;-66
2022/08/27 07:36:23;;;;;;;10.48;7.20;;;;;;;;;;4376450;32;20173;-65
2022/08/27 07:38:51;;;;;;;12.40;7.40;;;;;;;;;;4362715;32;20082;-65
2022/08/27 07:41:18;;;;;;;12.73;7.25;;;;;;;;;;4362951;32;20500;-67
2022/08/27 07:46:30;;;;;;;9.80;7.37;;;;;;;;;;4375111;32;20109;-65
2022/08/27 07:48:58;;;;;;;10.23;7.50;;;;;;;;;;4376632;32;20168;-66
2022/08/27 07:51:26;;;;;;;14.73;8.73;;;;;;;;;;4376327;32;20090;-66
2022/08/27 07:53:53;;;;;;;12.55;9.02;;;;;;;;;;4375687;32;20074;-65
2022/08/27 07:56:21;;;;;;;13.07;8.63;;;;;;;;;;4374931;32;20513;-66
2022/08/27 07:58:48;;;;;;;11.20;7.62;;;;;;;;;;4375279;32;20540;-66
2022/08/27 08:01:15;;;;;;;9.15;7.05;;;;;;;;;;4362388;32;20058;-66
2022/08/27 08:03:41;;;;;;;11.38;6.60;;;;;;;;;;4350619;32;20157;-66
2022/08/27 08:06:13;;;;;;;16.37;9.93;;;;;;;;;;4362459;32;20093;-66
2022/08/27 08:08:40;;;;;;;11.50;7.43;;;;;;;;;;4374924;32;20090;-65
2022/08/27 08:11:08;;;;;;;10.55;7.18;;;;;;;;;;4375064;32;20448;-66
2022/08/27 08:13:36;;;;;;;11.77;7.82;;;;;;;;;;4374902;32;20076;-65
2022/08/27 08:16:03;;;;;;;11.05;7.80;;;;;;;;;;4374675;32;20101;-65
2022/08/27 08:18:30;;;;;;;12.95;8.00;;;;;;;;;;4375967;32;20077;-65
2022/08/27 08:21:01;;;;;;;9.73;6.93;;;;;;;;;;4377224;32;20446;-65
2022/08/27 08:23:34;;;;;;;12.37;7.03;;;;;;;;;;4375300;32;20456;-65
2022/08/27 08:26:01;;;;;;;8.38;6.43;;;;;;;;;;4350818;32;20078;-66
2022/08/27 08:28:29;;;;;;;9.05;7.43;;;;;;;;;;4376142;32;20181;-65
2022/08/27 08:30:56;;;;;;;11.07;6.78;;;;;;;;;;4376425;32;20528;-65
2022/08/27 08:33:24;;;;;;;8.63;6.55;;;;;;;;;;4362700;32;20081;-65
2022/08/27 08:35:51;;;;;;;9.07;6.50;;;;;;;;;;4362548;32;20165;-65
2022/08/27 08:38:18;;;;;;;10.68;6.95;;;;;;;;;;4362972;32;20495;-66
2022/08/27 08:40:52;;;;;;;10.07;6.60;;;;;;;;;;4363922;32;20090;-66
2022/08/27 08:43:32;;;;;;;12.02;7.37;;;;;;;;;;4377963;32;20081;-66
2022/08/27 08:46:10;;;;;;;11.20;7.43;;;;;;;;;;4378954;32;20097;-65
2022/08/27 08:48:40;;;;;;;17.48;7.47;;;;;;;;;;4377908;32;20078;-66
2022/08/27 08:51:47;;;;;;;10.32;7.25;;;;;;;;;;4377712;32;20078;-64
2022/08/27 08:54:17;;;;;;;11.98;6.55;;;;;;;;;;4370774;32;20150;-66
2022/08/27 08:56:59;;;;;;;10.68;6.40;;;;;;;;;;4379011;32;20160;-67
2022/08/27 08:59:38;;;;;;;13.02;7.72;;;;;;;;;;4365674;32;20514;-66
2022/08/27 09:02:10;;;;;;;8.50;6.78;;;;;;;;;;4378236;32;20146;-65
2022/08/27 09:04:37;;;;;;;12.20;7.35;;;;;;;;;;4364887;32;20078;-65
2022/08/27 09:07:14;;;;;;;13.32;8.20;;;;;;;;;;4364875;32;20077;-65
2022/08/27 09:09:52;;;;;;;10.82;7.35;;;;;;;;;;4378461;32;20066;-65
2022/08/27 09:12:23;;;;;;;12.75;8.02;;;;;;;;;;4365355;32;20161;-66
2022/08/27 09:14:55;;;;;;;10.80;7.53;;;;;;;;;;4365222;32;20077;-65
2022/08/27 09:17:22;;;;;;;10.98;8.75;;;;;;;;;;4379044;32;20078;-65
2022/08/27 09:19:49;;;;;;;12.00;7.22;;;;;;;;;;4376809;32;20531;-66
2022/08/27 09:22:27;;;;;;;12.95;7.80;;;;;;;;;;4377224;32;20076;-64
2022/08/27 09:25:13;;;;;;;11.65;7.78;;;;;;;;;;4377946;32;20090;-65
2022/08/27 09:27:40;;;;;;;;;;;;;;;;;;4377217;32;20074;-66
2022/08/27 09:30:10;;;;;;;8.70;7.12;;;;;;;;;;4377106;32;20058;-65
2022/08/27 09:32:38;;;;;;;13.00;7.47;;;;;;;;;;4376974;32;20069;-66
2022/08/27 09:35:10;;;;;;;11.38;7.70;;;;;;;;;;4378794;32;20094;-66
2022/08/27 09:37:42;;;;;;;11.65;7.55;;;;;;;;;;4364602;32;20156;-66
2022/08/27 09:40:30;;;;;;;10.48;7.12;;;;;;;;;;4364523;32;20086;-65
2022/08/27 09:43:18;;;;;;;12.15;7.90;;;;;;;;;;4376946;32;20078;-66
2022/08/27 09:45:50;;;;;;;10.45;7.40;;;;;;;;;;4377588;32;20093;-65
2022/08/27 09:48:25;;;;;;;10.45;8.02;;;;;;;;;;4377280;32;20073;-65
2022/08/27 09:50:55;;;;;;;13.48;7.50;;;;;;;;;;4377257;32;20094;-65
2022/08/27 09:53:50;;;;;;;9.70;6.65;;;;;;;;;;4363473;32;20081;-64
2022/08/27 09:56:32;;;;;;;14.13;7.80;;;;;;;;;;4347872;32;20167;-65
2022/08/27 09:59:11;;;;;;;16.05;7.97;;;;;;;;;;4376612;32;20166;-66
2022/08/27 10:02:18;;;;;;;12.32;8.18;;;;;;;;;;4376444;32;20174;-65
2022/08/27 10:04:47;;;;;;;10.32;7.28;;;;;;;;;;4376804;32;20481;-66
2022/08/27 10:07:36;;;;;;;12.68;7.60;;;;;;;;;;4376440;32;20075;-65
2022/08/27 10:10:10;;;;;;;10.05;7.57;;;;;;;;;;4378073;32;20515;-66
2022/08/27 10:13:00;;;;;;;11.43;8.55;;;;;;;;;;4378757;32;20448;-66
2022/08/27 10:15:53;;;;;;;11.70;7.75;;;;;;;;;;4376480;32;20088;-65
2022/08/27 10:18:25;;;;;;;10.27;7.10;;;;;;;;;;4370494;32;20533;-66
2022/08/27 10:21:11;;;;;;;10.60;7.20;;;;;;;;;;4377888;32;20509;-66
2022/08/27 10:23:47;;;;;;;11.20;6.82;;;;;;;;;;4376355;32;20070;-65
2022/08/27 10:26:16;;;;;;;;;;;;;;;;;;4376329;32;20161;-64
2022/08/27 10:29:07;;;;;;;12.93;7.25;;;;;;;;;;4375940;32;20529;-66
2022/08/27 10:32:06;;;;;;;11.48;7.47;;;;;;;;;;4363641;32;20152;-65
2022/08/27 10:34:45;;;;;;;10.32;7.50;;;;;;;;;;4363719;32;20113;-65
2022/08/27 10:37:20;;;;;;;9.15;7.07;;;;;;;;;;4351317;32;20097;-65
2022/08/27 10:39:55;;;;;;;11.10;7.10;;;;;;;;;;4377189;32;20169;-65
2022/08/27 10:42:40;;;;;;;10.68;7.10;;;;;;;;;;4376197;32;20159;-66
2022/08/27 10:45:17;;;;;;;12.50;7.30;;;;;;;;;;4375324;32;20086;-66
2022/08/27 10:48:23;;;;;;;11.38;7.37;;;;;;;;;;4377810;32;20569;-65
2022/08/27 10:51:03;;;;;;;10.93;7.70;;;;;;;;;;4338699;32;20115;-65
2022/08/27 10:53:58;;;;;;;11.60;8.10;;;;;;;;;;4375470;32;20082;-65
2022/08/27 10:57:06;;;;;;;11.80;7.20;;;;;;;;;;4377577;32;20147;-65
2022/08/27 10:59:47;;;;;;;9.55;6.80;;;;;;;;;;4346011;33;20178;-66
2022/08/27 11:02:22;;;;;;;11.48;7.35;;;;;;;;;;4374621;32;20094;-65
2022/08/27 11:04:58;;;;;;;10.05;7.03;;;;;;;;;;4351372;32;20171;-66
2022/08/27 11:07:32;;;;;;;10.73;7.05;;;;;;;;;;4362969;32;20598;-65
2022/08/27 11:10:03;;;;;;;15.70;6.45;;;;;;;;;;4375432;32;20076;-65
2022/08/27 11:12:43;;;;;;;9.65;7.05;;;;;;;;;;4362872;32;20491;-65
2022/08/27 11:15:19;;;;;;;12.85;7.57;;;;;;;;;;4375856;32;20158;-65
2022/08/27 11:18:06;;;;;;;11.18;7.20;;;;;;;;;;4375412;32;20074;-69
2022/08/27 11:20:52;;;;;;;10.45;6.93;;;;;;;;;;4375097;32;20464;-65
2022/08/27 11:23:21;;;;;;;;;;;;;;;;;;4376458;32;20178;-64
2022/08/27 11:25:56;;;;;;;10.35;7.65;;;;;;;;;;4375115;32;20432;-65
2022/08/27 11:28:30;;;;;;;12.32;7.28;;;;;;;;;;4363115;32;20173;-64
2022/08/27 11:31:32;;;;;;;9.88;7.47;;;;;;;;;;4375337;32;20074;-67
2022/08/27 11:34:26;;;;;;;12.70;7.62;;;;;;;;;;4375605;32;20077;-66
2022/08/27 11:37:11;;;;;;;10.95;7.37;;;;;;;;;;4362499;32;20501;-65
2022/08/27 11:39:51;;;;;;;11.18;7.10;;;;;;;;;;4376089;32;20065;-65
2022/08/27 11:42:35;;;;;;;11.65;7.53;;;;;;;;;;4376575;32;20525;-65
2022/08/27 11:45:10;;;;;;;11.07;7.37;;;;;;;;;;4362772;32;20598;-66
2022/08/27 11:47:37;;;;;;;10.73;7.12;;;;;;;;;;4363092;32;20446;-66
2022/08/27 11:50:11;;;;;;;10.35;7.03;;;;;;;;;;4376408;32;20093;-65
2022/08/27 11:52:40;;;;;;;10.88;7.18;;;;;;;;;;4375716;32;20078;-65
2022/08/27 11:55:21;;;;;;;9.38;7.10;;;;;;;;;;4376622;32;20089;-65
2022/08/27 11:58:01;;;;;;;11.52;7.57;;;;;;;;;;4375169;32;20169;-65
2022/08/27 12:00:34;;;;;;;9.85;7.15;;;;;;;;;;4375219;32;20081;-64
2022/08/27 12:03:05;;;;;;;10.82;7.65;;;;;;;;;;4363286;32;20210;-65
2022/08/27 12:05:43;;;;;;;11.07;7.40;;;;;;;;;;4375360;32;20082;-64
2022/08/27 12:08:26;;;;;;;9.75;7.55;;;;;;;;;;4375114;32;20078;-65
2022/08/27 12:11:11;;;;;;;10.82;7.50;;;;;;;;;;4375420;32;20088;-65
2022/08/27 12:13:40;;;;;;;10.15;7.40;;;;;;;;;;4376216;32;20453;-65
2022/08/27 12:16:25;;;;;;;11.73;7.60;;;;;;;;;;4378510;32;20071;-65
2022/08/27 12:19:19;;;;;;;11.63;7.53;;;;;;;;;;4378195;32;20089;-67
2022/08/27 12:22:15;;;;;;;10.20;7.35;;;;;;;;;;4378252;32;20111;-65
2022/08/27 12:24:58;;;;;;;13.32;6.82;;;;;;;;;;4365833;32;20178;-65
2022/08/27 12:27:34;;;;;;;11.10;6.85;;;;;;;;;;4352841;32;20081;-65
2022/08/27 12:30:31;;;;;;;15.23;8.00;;;;;;;;;;4378140;32;20094;-65
2022/08/27 12:33:03;;;;;;;9.85;7.45;;;;;;;;;;4377591;32;20155;-65
2022/08/27 12:35:47;;;;;;;10.43;7.20;;;;;;;;;;4378377;32;20086;-66
2022/08/27 12:38:18;;;;;;;11.40;7.60;;;;;;;;;;4365824;32;20082;-66
2022/08/27 12:40:48;;;;;;;12.48;6.22;;;;;;;;;;4378388;32;20073;-65
2022/08/27 12:43:26;;;;;;;12.48;6.87;;;;;;;;;;4378119;32;20080;-66
2022/08/27 12:46:18;;;;;;;10.40;7.65;;;;;;;;;;4365193;32;20114;-65
2022/08/27 12:48:48;;;;;;;10.45;7.60;;;;;;;;;;4377234;32;20162;-65
2022/08/27 12:51:26;;;;;;;13.65;8.20;;;;;;;;;;4353064;32;20069;-65
2022/08/27 12:53:55;;;;;;;12.30;8.30;;;;;;;;;;4377497;32;20086;-65
2022/08/27 12:56:40;;;;;;;14.55;8.68;;;;;;;;;;4377925;32;20108;-66
2022/08/27 12:59:16;;;;;;;12.52;7.30;;;;;;;;;;4379142;32;20084;-65
2022/08/27 13:02:17;;;;;;;11.55;7.95;;;;;;;;;;4365270;32;20130;-65
2022/08/27 13:04:46;;;;;;;10.13;7.85;;;;;;;;;;4363671;32;20101;-66
2022/08/27 13:07:33;;;;;;;11.77;8.40;;;;;;;;;;4379265;32;20078;-66
2022/08/27 13:10:30;;;;;;;15.35;8.45;;;;;;;;;;4377057;32;20086;-64
2022/08/27 13:13:12;;;;;;;12.80;8.20;;;;;;;;;;4368065;32;20100;-64
2022/08/27 13:16:05;;;;;;;10.05;7.10;;;;;;;;;;4377166;32;20161;-66
2022/08/27 13:18:32;;;;;;;10.55;7.78;;;;;;;;;;4376841;32;20089;-66
2022/08/27 13:21:16;;;;;;;11.20;7.50;;;;;;;;;;4364831;32;20174;-65
2022/08/27 13:23:56;;;;;;;12.43;7.97;;;;;;;;;;4377086;32;20094;-65
2022/08/27 13:26:28;;;;;;;12.75;8.35;;;;;;;;;;4351742;32;20077;-65
2022/08/27 13:28:55;;;;;;;12.00;8.50;;;;;;;;;;4364691;32;20066;-65
2022/08/27 13:31:23;;;;;;;12.02;8.55;;;;;;;;;;4364329;32;20098;-66
2022/08/27 13:33:50;;;;;;;12.77;8.73;;;;;;;;;;4377020;32;20097;-65
2022/08/27 13:36:32;;;;;;;13.70;9.23;;;;;;;;;;4365116;32;20083;-65
2022/08/27 13:39:04;;;;;;;17.83;10.05;;;;;;;;;;4364841;32;20116;-65
2022/08/27 13:41:35;;;;;;;16.48;9.75;;;;;;;;;;4378576;32;20099;-65
2022/08/27 13:44:13;;;;;;;15.57;9.50;;;;;;;;;;4377655;32;20262;-66
2022/08/27 13:47:04;;;;;;;15.02;9.13;;;;;;;;;;4378466;32;20113;-65
2022/08/27 13:49:33;;;;;;;11.40;8.90;;;;;;;;;;4371284;32;20070;-65
2022/08/27 13:52:18;;;;;;;13.55;9.15;;;;;;;;;;4378027;32;20513;-65
2022/08/27 13:54:59;;;;;;;14.70;9.60;;;;;;;;;;4376617;32;20089;-64
2022/08/27 13:57:29;;;;;;;16.60;10.43;;;;;;;;;;4377986;32;20070;-65
2022/08/27 14:00:09;;;;;;;14.27;9.55;;;;;;;;;;4376540;32;20086;-66
2022/08/27 14:02:35;;;;;;;16.08;10.35;;;;;;;;;;4364122;32;20069;-66
2022/08/27 14:05:35;;;;;;;19.23;10.70;;;;;;;;;;4378091;32;20512;-64
2022/08/27 14:08:12;;;;;;;14.68;9.48;;;;;;;;;;4376925;32;20070;-65
2022/08/27 14:10:43;;;;;;;14.75;10.45;;;;;;;;;;4363857;32;20497;-65
2022/08/27 14:13:10;;;;;;;17.92;10.75;;;;;;;;;;4363940;32;20101;-65
2022/08/27 14:15:40;;;;;;;18.70;11.35;;;;;;;;;;4377328;32;20097;-66
2022/08/27 14:18:29;;;;;;;18.27;11.02;;;;;;;;;;4376249;32;20100;-65
2022/08/27 14:20:56;;;;;;;16.92;10.30;;;;;;;;;;4377226;32;20078;-65
2022/08/27 14:23:23;;;;;;;21.50;13.77;;;;;;;;;;4363599;32;20074;-65
2022/08/27 14:25:51;;;;;;;23.42;13.00;;;;;;;;;;4377689;32;20100;-64
2022/08/27 14:28:19;;;;;;;20.42;13.38;;;;;;;;;;4378872;32;20102;-65
2022/08/27 14:30:46;;;;;;;21.37;12.98;;;;;;;;;;4378622;32;20089;-66
2022/08/27 14:33:13;;;;;;;22.40;13.62;;;;;;;;;;4377791;32;20097;-66
2022/08/27 14:35:40;;;;;;;20.95;12.73;;;;;;;;;;4375897;32;20178;-65
2022/08/27 14:38:28;;;;;;;20.60;14.18;;;;;;;;;;4375744;32;20101;-64
2022/08/27 14:40:59;;;;;;;21.52;14.23;;;;;;;;;;4377219;32;20078;-66
2022/08/27 14:43:26;;;;;;;17.25;12.35;;;;;;;;;;4377823;32;20098;-65
2022/08/27 14:45:53;;;;;;;23.17;14.23;;;;;;;;;;4377159;32;20078;-65
2022/08/27 14:48:26;;;;;;;18.45;12.00;;;;;;;;;;4351031;32;20101;-65
2022/08/27 14:50:53;;;;;;;17.30;12.07;;;;;;;;;;4376228;32;20078;-65
2022/08/27 14:53:20;;;;;;;16.33;11.50;;;;;;;;;;4377181;32;20093;-64
2022/08/27 14:55:47;;;;;;;19.30;11.30;;;;;;;;;;4377434;32;20086;-65
2022/08/27 14:58:13;;;;;;;16.75;11.70;;;;;;;;;;4375745;32;20073;-65
2022/08/27 15:00:42;;;;;;;19.48;12.82;;;;;;;;;;4363602;32;20096;-66
2022/08/27 15:03:09;;;;;;;21.27;13.25;;;;;;;;;;4377446;32;20074;-65
2022/08/27 15:05:37;;;;;;;19.33;13.50;;;;;;;;;;4375565;32;20093;-66